Time;durP1;ratioP1;P1;durP2;ratioP2;P2;SDS_P1;SDS_P2;PMS_P1;PMS_P2;Temp;Humidity;BMP_temperature;BMP_pressure;BME280_temperature;BME280_humidity;BME280_pressure;Samples;Min_cycle;Max_cycle;Signal;HPM_P1;HPM_P2
2023/05/07 00:03:08;;;;;;;;;;;10.00;99.90;;;;;;8268109;28;19918;-79
2023/05/07 00:07:08;;;;;;;;;;;10.00;99.90;;;;;;8272701;28;20001;-79
2023/05/07 00:11:09;;;;;;;;;;;9.90;99.90;;;;;;8278488;28;19910;-79
2023/05/07 00:15:09;;;;;;;;;;;9.90;99.90;;;;;;8280398;28;19910;-79
2023/05/07 00:19:10;;;;;;;;;;;9.90;99.90;;;;;;8273865;28;20469;-78
2023/05/07 00:23:10;;;;;;;;;;;10.30;99.90;;;;;;8261177;28;19918;-79
2023/05/07 00:27:11;;;;;;;;;;;10.30;99.90;;;;;;8276533;28;19913;-78
2023/05/07 00:31:11;;;;;;;;;;;10.40;99.90;;;;;;8283825;28;19914;-79
2023/05/07 00:35:12;;;;;;;;;;;10.20;99.90;;;;;;8276386;28;20020;-79
2023/05/07 00:39:12;;;;;;;;;;;10.10;99.90;;;;;;8285183;28;19918;-79
2023/05/07 00:43:13;;;;;;;;;;;9.90;99.90;;;;;;8274306;28;19917;-79
2023/05/07 00:47:14;;;;;;;;;;;9.70;99.90;;;;;;8280033;28;19910;-78
2023/05/07 00:51:14;;;;;;;;;;;9.70;99.90;;;;;;8273650;28;20397;-79
2023/05/07 00:55:15;;;;;;;;;;;9.80;99.90;;;;;;8269976;28;19963;-78
2023/05/07 00:59:15;;;;;;;;;;;9.90;99.90;;;;;;8279564;28;19918;-79
2023/05/07 01:03:16;;;;;;;;;;;9.90;99.90;;;;;;8278725;28;19928;-79
2023/05/07 01:07:16;;;;;;;;;;;9.80;99.90;;;;;;8268292;28;19999;-79
2023/05/07 01:11:19;;;;;;;;;;;9.70;99.90;;;;;;8270894;28;19913;-79
2023/05/07 01:15:19;;;;;;;;;;;9.70;99.90;;;;;;8269965;28;19921;-79
2023/05/07 01:19:20;;;;;;;;;;;9.60;99.90;;;;;;8262824;28;19913;-80
2023/05/07 01:23:20;;;;;;;;;;;9.60;99.90;;;;;;8276553;28;20290;-79
2023/05/07 01:27:21;;;;;;;;;;;9.60;99.90;;;;;;8272883;28;19996;-79
2023/05/07 01:31:23;;;;;;;;;;;9.60;99.90;;;;;;8276480;28;19909;-79
2023/05/07 01:35:26;;;;;;;;;;;9.70;99.90;;;;;;8274760;28;19945;-79
2023/05/07 01:39:28;;;;;;;;;;;9.80;99.90;;;;;;8266233;28;19965;-78
2023/05/07 01:43:29;;;;;;;;;;;10.30;99.90;;;;;;8265380;28;19921;-78
2023/05/07 01:47:30;;;;;;;;;;;10.10;99.90;;;;;;8278159;28;19909;-79
2023/05/07 01:51:31;;;;;;;;;;;9.70;99.90;;;;;;8274209;28;19921;-79
2023/05/07 01:55:31;;;;;;;;;;;9.60;99.90;;;;;;8273588;28;19979;-79
2023/05/07 01:59:32;;;;;;;;;;;9.50;99.90;;;;;;8272296;28;20020;-79
2023/05/07 02:03:32;;;;;;;;;;;9.40;99.90;;;;;;8270120;28;19928;-79
2023/05/07 02:07:32;;;;;;;;;;;9.40;99.90;;;;;;8273958;28;19913;-79
2023/05/07 02:11:33;;;;;;;;;;;9.40;99.90;;;;;;8274329;28;19981;-79
2023/05/07 02:15:33;;;;;;;;;;;9.50;99.90;;;;;;8274625;28;19957;-82
2023/05/07 02:19:34;;;;;;;;;;;9.60;99.90;;;;;;8269691;28;19910;-79
2023/05/07 02:23:34;;;;;;;;;;;9.70;99.90;;;;;;8268431;28;19918;-79
2023/05/07 02:27:35;;;;;;;;;;;9.50;99.90;;;;;;8273189;28;19910;-79
2023/05/07 02:31:35;;;;;;;;;;;9.40;99.90;;;;;;8276557;28;20091;-79
2023/05/07 02:35:36;;;;;;;;;;;9.20;99.90;;;;;;8273564;28;19917;-79
2023/05/07 02:39:37;;;;;;;;;;;9.00;99.90;;;;;;8265798;28;19988;-79
2023/05/07 02:43:37;;;;;;;;;;;9.00;99.90;;;;;;8268840;28;19910;-79
2023/05/07 02:47:37;;;;;;;;;;;8.90;99.90;;;;;;8278183;28;19953;-78
2023/05/07 02:51:38;;;;;;;;;;;8.80;99.90;;;;;;8280727;28;19918;-79
2023/05/07 02:55:38;;;;;;;;;;;8.80;99.90;;;;;;8274609;28;19996;-78
2023/05/07 02:59:39;;;;;;;;;;;8.90;99.90;;;;;;8282727;28;20425;-78
2023/05/07 03:03:39;;;;;;;;;;;8.90;99.90;;;;;;8279034;28;19964;-78
2023/05/07 03:07:44;;;;;;;;;;;8.70;99.90;;;;;;8280524;28;20290;-78
2023/05/07 03:11:44;;;;;;;;;;;8.80;99.90;;;;;;8280931;28;19917;-78
2023/05/07 03:15:45;;;;;;;;;;;8.80;99.90;;;;;;8274678;28;19944;-78
2023/05/07 03:19:45;;;;;;;;;;;8.80;99.90;;;;;;8281307;28;20001;-80
2023/05/07 03:23:46;;;;;;;;;;;9.00;99.90;;;;;;8272168;28;19976;-78
2023/05/07 03:27:46;;;;;;;;;;;8.60;99.90;;;;;;8278585;28;19922;-78
2023/05/07 03:31:47;;;;;;;;;;;8.30;99.90;;;;;;8283210;28;20342;-79
2023/05/07 03:35:47;;;;;;;;;;;8.20;99.90;;;;;;8271828;28;20483;-78
2023/05/07 03:39:47;;;;;;;;;;;8.20;99.90;;;;;;8266479;28;20311;-79
2023/05/07 03:43:48;;;;;;;;;;;8.20;99.90;;;;;;8272008;28;19925;-78
2023/05/07 03:47:48;;;;;;;;;;;8.20;99.90;;;;;;8277114;28;19914;-80
2023/05/07 03:51:49;;;;;;;;;;;8.40;99.90;;;;;;8275082;28;19918;-78
2023/05/07 03:55:49;;;;;;;;;;;8.20;99.90;;;;;;8274499;28;19957;-78
2023/05/07 03:59:50;;;;;;;;;;;8.00;99.90;;;;;;8270774;28;19917;-78
2023/05/07 04:03:50;;;;;;;;;;;7.90;99.90;;;;;;8272822;28;19917;-78
2023/05/07 04:07:51;;;;;;;;;;;8.00;99.90;;;;;;8276987;28;20409;-78
2023/05/07 04:11:51;;;;;;;;;;;7.90;99.90;;;;;;8272338;28;19921;-80
2023/05/07 04:15:52;;;;;;;;;;;7.90;99.90;;;;;;8280790;28;19917;-78
2023/05/07 04:19:52;;;;;;;;;;;7.90;99.90;;;;;;8285069;28;19917;-78
2023/05/07 04:23:53;;;;;;;;;;;7.90;99.90;;;;;;8267035;28;20406;-78
2023/05/07 04:27:53;;;;;;;;;;;8.10;99.90;;;;;;8275504;28;19972;-78
2023/05/07 04:31:56;;;;;;;;;;;8.30;99.90;;;;;;8274561;28;19918;-78
2023/05/07 04:35:56;;;;;;;;;;;8.40;99.90;;;;;;8272520;28;19929;-80
2023/05/07 04:39:57;;;;;;;;;;;8.70;99.90;;;;;;8274007;28;20370;-79
2023/05/07 04:43:58;;;;;;;;;;;9.00;99.90;;;;;;8269223;28;19922;-78
2023/05/07 04:47:59;;;;;;;;;;;9.30;99.90;;;;;;8281421;28;19918;-78
2023/05/07 04:51:59;;;;;;;;;;;9.40;99.90;;;;;;8267277;28;19968;-79
2023/05/07 04:56:00;;;;;;;;;;;9.50;99.90;;;;;;8276584;28;20000;-78
2023/05/07 05:00:00;;;;;;;;;;;9.70;99.90;;;;;;8275944;28;19994;-78
2023/05/07 05:04:01;;;;;;;;;;;9.80;99.90;;;;;;8267794;28;19928;-78
2023/05/07 05:08:01;;;;;;;;;;;10.10;99.90;;;;;;8283482;28;19917;-78
2023/05/07 05:12:02;;;;;;;;;;;10.50;99.90;;;;;;8276387;28;19936;-78
2023/05/07 05:16:02;;;;;;;;;;;10.70;99.90;;;;;;8271818;28;19914;-78
2023/05/07 05:20:03;;;;;;;;;;;11.00;99.90;;;;;;8279693;28;20013;-78
2023/05/07 05:24:04;;;;;;;;;;;11.10;99.90;;;;;;8269503;28;19921;-80
2023/05/07 05:28:04;;;;;;;;;;;11.50;99.90;;;;;;8269761;28;19917;-79
2023/05/07 05:32:05;;;;;;;;;;;12.20;99.90;;;;;;8265377;28;19918;-79
2023/05/07 05:36:06;;;;;;;;;;;12.20;99.90;;;;;;8255714;28;20016;-79
2023/05/07 05:40:06;;;;;;;;;;;12.40;99.90;;;;;;8263691;28;19964;-79
2023/05/07 05:44:07;;;;;;;;;;;12.90;99.90;;;;;;8264976;28;19910;-78
2023/05/07 05:48:08;;;;;;;;;;;13.40;99.90;;;;;;8265618;28;20405;-78
2023/05/07 05:52:09;;;;;;;;;;;13.60;99.90;;;;;;8265558;28;19961;-78
2023/05/07 05:56:09;;;;;;;;;;;14.50;99.90;;;;;;8260551;28;19914;-79
2023/05/07 06:00:10;;;;;;;;;;;15.30;99.90;;;;;;8249662;28;19965;-80
2023/05/07 06:04:11;;;;;;;;;;;15.80;99.90;;;;;;8261335;28;19944;-79
2023/05/07 06:08:11;;;;;;;;;;;16.40;99.90;;;;;;8265473;28;19940;-79
2023/05/07 06:12:12;;;;;;;;;;;17.40;99.90;;;;;;8269840;28;19918;-79
2023/05/07 06:16:12;;;;;;;;;;;18.20;99.90;;;;;;8265470;28;19921;-80
2023/05/07 06:20:13;;;;;;;;;;;19.30;99.90;;;;;;8259678;28;19922;-80
2023/05/07 06:24:13;;;;;;;;;;;19.70;99.90;;;;;;8263100;28;19964;-79
2023/05/07 06:28:14;;;;;;;;;;;20.30;99.90;;;;;;8261139;28;20371;-80
2023/05/07 06:32:14;;;;;;;;;;;20.70;99.90;;;;;;8259935;28;19926;-80
2023/05/07 06:36:15;;;;;;;;;;;21.50;99.90;;;;;;8261774;28;19961;-80
2023/05/07 06:40:15;;;;;;;;;;;21.70;99.90;;;;;;8256902;28;19925;-80
2023/05/07 06:44:16;;;;;;;;;;;21.90;99.90;;;;;;8259991;28;19921;-79
2023/05/07 06:48:16;;;;;;;;;;;21.70;99.90;;;;;;8262842;28;19917;-80
2023/05/07 06:52:16;;;;;;;;;;;21.60;99.90;;;;;;8256441;28;20007;-80
2023/05/07 06:56:17;;;;;;;;;;;21.70;99.90;;;;;;8258052;28;19913;-80
2023/05/07 07:00:18;;;;;;;;;;;21.80;99.90;;;;;;8250683;28;20291;-80
2023/05/07 07:04:18;;;;;;;;;;;21.80;99.90;;;;;;8263154;28;20012;-80
2023/05/07 07:08:20;;;;;;;;;;;22.80;99.90;;;;;;8264052;28;20540;-80
2023/05/07 07:12:22;;;;;;;;;;;23.20;99.90;;;;;;8260972;28;19933;-80
2023/05/07 07:16:22;;;;;;;;;;;23.70;99.90;;;;;;8262202;28;19972;-80
2023/05/07 07:20:23;;;;;;;;;;;24.40;99.90;;;;;;8264626;28;19914;-80
2023/05/07 07:24:23;;;;;;;;;;;24.60;99.90;;;;;;8260050;28;19970;-80
2023/05/07 07:28:24;;;;;;;;;;;24.40;99.90;;;;;;8258805;28;19920;-80
2023/05/07 07:32:24;;;;;;;;;;;24.50;99.90;;;;;;8262113;28;19925;-80
2023/05/07 07:36:26;;;;;;;;;;;24.00;99.90;;;;;;8263523;28;19976;-80
2023/05/07 07:40:26;;;;;;;;;;;23.80;99.90;;;;;;8261803;28;20005;-80
2023/05/07 07:44:27;;;;;;;;;;;24.10;99.90;;;;;;8267508;28;19917;-80
2023/05/07 07:48:28;;;;;;;;;;;24.80;99.90;;;;;;8274401;28;19920;-80
2023/05/07 07:52:28;;;;;;;;;;;25.20;99.90;;;;;;8266700;28;19925;-79
2023/05/07 07:56:29;;;;;;;;;;;24.90;99.90;;;;;;8268004;28;19918;-80
2023/05/07 08:00:30;;;;;;;;;;;24.80;99.90;;;;;;8278247;28;19914;-81
2023/05/07 08:04:32;;;;;;;;;;;25.30;99.90;;;;;;8277220;28;20051;-80
2023/05/07 08:08:33;;;;;;;;;;;25.20;99.90;;;;;;8279652;28;19952;-80
2023/05/07 08:12:33;;;;;;;;;;;25.50;99.90;;;;;;8277882;28;20314;-81
2023/05/07 08:16:34;;;;;;;;;;;25.30;99.90;;;;;;8277224;28;19941;-79
2023/05/07 08:20:39;;;;;;;;;;;25.20;99.90;;;;;;8270190;28;19917;-80
2023/05/07 08:24:39;;;;;;;;;;;25.10;99.90;;;;;;8269094;28;19917;-80
2023/05/07 08:28:40;;;;;;;;;;;25.30;99.90;;;;;;8251720;28;19922;-80
2023/05/07 08:32:40;;;;;;;;;;;24.60;99.90;;;;;;8265329;28;20309;-80
2023/05/07 08:36:44;;;;;;;;;;;24.30;99.90;;;;;;8268940;28;19918;-80
2023/05/07 08:40:44;;;;;;;;;;;24.50;99.90;;;;;;8262825;28;20213;-80
2023/05/07 08:44:48;;;;;;;;;;;24.50;99.90;;;;;;8256544;28;19921;-81
2023/05/07 08:48:49;;;;;;;;;;;24.60;99.90;;;;;;8277848;28;19910;-81
2023/05/07 08:52:50;;;;;;;;;;;25.80;99.90;;;;;;8265846;28;19925;-80
2023/05/07 08:56:51;;;;;;;;;;;26.30;99.90;;;;;;8256610;28;19936;-81
2023/05/07 09:00:52;;;;;;;;;;;26.00;99.90;;;;;;8263039;28;19956;-81
2023/05/07 09:04:53;;;;;;;;;;;26.30;99.90;;;;;;8260660;28;19968;-82
2023/05/07 09:08:54;;;;;;;;;;;26.00;99.90;;;;;;8268339;28;20362;-80
2023/05/07 09:12:54;;;;;;;;;;;25.70;99.90;;;;;;8260811;28;19925;-79
2023/05/07 09:16:55;;;;;;;;;;;25.40;99.90;;;;;;8275398;28;19917;-80
2023/05/07 09:20:56;;;;;;;;;;;24.90;99.90;;;;;;8271581;28;19976;-79
2023/05/07 09:24:56;;;;;;;;;;;24.10;99.90;;;;;;8271759;28;19925;-80
2023/05/07 09:28:57;;;;;;;;;;;23.70;99.90;;;;;;8266310;28;20046;-81
2023/05/07 09:32:57;;;;;;;;;;;23.30;99.90;;;;;;8273551;28;19918;-81
2023/05/07 09:37:05;;;;;;;;;;;22.90;99.90;;;;;;8268963;28;19920;-81
2023/05/07 09:41:06;;;;;;;;;;;23.20;99.90;;;;;;8251221;28;20024;-80
2023/05/07 09:45:07;;;;;;;;;;;23.70;99.90;;;;;;8249905;28;19918;-80
2023/05/07 09:49:13;;;;;;;;;;;24.50;99.90;;;;;;8245721;28;19914;-81
2023/05/07 09:53:14;;;;;;;;;;;25.00;99.90;;;;;;8247130;28;19926;-81
2023/05/07 09:57:15;;;;;;;;;;;25.20;99.90;;;;;;8243747;28;19928;-81
2023/05/07 10:01:16;;;;;;;;;;;25.30;99.90;;;;;;8247194;28;19918;-81
2023/05/07 10:05:21;;;;;;;;;;;25.70;99.90;;;;;;8241491;28;19937;-82
2023/05/07 10:09:22;;;;;;;;;;;25.60;99.90;;;;;;8246160;28;19918;-81
2023/05/07 10:13:23;;;;;;;;;;;25.80;99.90;;;;;;8251203;28;19921;-81
2023/05/07 10:17:24;;;;;;;;;;;26.00;99.90;;;;;;8255403;28;20574;-82
2023/05/07 10:21:26;;;;;;;;;;;25.80;99.90;;;;;;8263866;28;20429;-82
2023/05/07 10:25:30;;;;;;;;;;;25.80;99.90;;;;;;8263003;28;19917;-81
2023/05/07 10:29:50;;;;;;;;;;;26.10;99.90;;;;;;8250444;28;19914;-80
2023/05/07 10:33:52;;;;;;;;;;;26.70;99.90;;;;;;8256652;28;19921;-81
2023/05/07 10:37:53;;;;;;;;;;;26.90;99.90;;;;;;8253217;28;20416;-81
2023/05/07 10:41:54;;;;;;;;;;;27.60;97.10;;;;;;8255793;28;19913;-81
2023/05/07 10:46:10;;;;;;;;;;;28.00;99.00;;;;;;8255715;28;19918;-80
2023/05/07 10:50:10;;;;;;;;;;;27.90;94.40;;;;;;8240499;28;19957;-81
2023/05/07 10:54:10;;;;;;;;;;;27.30;96.20;;;;;;8257873;28;19929;-80
2023/05/07 10:58:20;;;;;;;;;;;27.40;96.20;;;;;;8270800;28;19920;-81
2023/05/07 11:02:21;;;;;;;;;;;27.50;92.70;;;;;;8274699;28;19992;-80
2023/05/07 11:06:21;;;;;;;;;;;28.10;96.40;;;;;;8264388;28;19914;-81
2023/05/07 11:10:22;;;;;;;;;;;28.00;97.80;;;;;;8258502;28;19910;-81
2023/05/07 11:14:41;;;;;;;;;;;28.60;95.30;;;;;;8268139;28;19925;-81
2023/05/07 11:18:49;;;;;;;;;;;29.40;90.10;;;;;;8262960;28;19922;-81
2023/05/07 11:22:49;;;;;;;;;;;29.00;92.50;;;;;;8275888;28;19914;-81
2023/05/07 11:26:50;;;;;;;;;;;29.50;93.30;;;;;;8279835;28;19913;-82
2023/05/07 11:30:51;;;;;;;;;;;30.10;91.80;;;;;;8275566;28;19913;-81
2023/05/07 11:34:52;;;;;;;;;;;29.80;89.00;;;;;;8277030;28;20389;-81
2023/05/07 11:38:53;;;;;;;;;;;29.70;92.80;;;;;;8266730;28;19929;-81
2023/05/07 11:42:53;;;;;;;;;;;30.00;88.60;;;;;;8260551;28;19914;-82
2023/05/07 11:46:54;;;;;;;;;;;30.60;82.80;;;;;;8276181;28;19914;-81
2023/05/07 11:51:00;;;;;;;;;;;30.20;83.50;;;;;;8251205;28;20547;-81
2023/05/07 11:55:01;;;;;;;;;;;28.80;90.20;;;;;;8267807;28;20309;-80
2023/05/07 11:59:02;;;;;;;;;;;28.20;93.90;;;;;;8271383;28;20004;-81
2023/05/07 12:03:03;;;;;;;;;;;28.40;90.30;;;;;;8267267;28;19940;-80
2023/05/07 12:07:04;;;;;;;;;;;27.70;92.30;;;;;;8276387;28;20446;-81
2023/05/07 12:11:06;;;;;;;;;;;26.30;95.10;;;;;;8273972;28;19917;-81
2023/05/07 12:15:07;;;;;;;;;;;26.60;95.60;;;;;;8265540;28;19929;-81
2023/05/07 12:19:08;;;;;;;;;;;27.50;92.70;;;;;;8266083;28;19914;-81
2023/05/07 12:23:10;;;;;;;;;;;27.60;91.90;;;;;;8267148;28;19917;-81
2023/05/07 12:27:10;;;;;;;;;;;27.30;92.70;;;;;;8271901;28;19913;-81
2023/05/07 12:31:11;;;;;;;;;;;26.50;93.00;;;;;;8271821;28;20365;-81
2023/05/07 12:35:11;;;;;;;;;;;26.40;93.60;;;;;;8273771;28;19918;-81
2023/05/07 12:39:12;;;;;;;;;;;27.30;94.50;;;;;;8264482;28;19914;-82
2023/05/07 12:43:24;;;;;;;;;;;29.10;90.20;;;;;;8273059;28;19924;-80
2023/05/07 12:47:25;;;;;;;;;;;29.50;88.00;;;;;;8269461;28;19922;-81
2023/05/07 12:51:27;;;;;;;;;;;29.40;85.70;;;;;;8280280;28;19993;-81
2023/05/07 12:55:28;;;;;;;;;;;28.80;90.40;;;;;;8268285;28;20400;-81
2023/05/07 12:59:32;;;;;;;;;;;27.80;89.80;;;;;;8277842;28;19915;-81
2023/05/07 13:03:34;;;;;;;;;;;28.40;90.70;;;;;;8278463;28;19993;-82
2023/05/07 13:07:34;;;;;;;;;;;29.50;87.30;;;;;;8283021;28;20337;-83
2023/05/07 13:11:35;;;;;;;;;;;29.40;83.30;;;;;;8266911;28;19921;-82
2023/05/07 13:15:35;;;;;;;;;;;29.30;82.60;;;;;;8263240;28;19948;-82
2023/05/07 13:19:39;;;;;;;;;;;30.00;81.40;;;;;;8259652;28;19918;-81
2023/05/07 13:23:40;;;;;;;;;;;29.90;81.10;;;;;;8255350;28;20432;-81
2023/05/07 13:27:40;;;;;;;;;;;29.50;85.20;;;;;;8256785;28;20330;-81
2023/05/07 13:31:43;;;;;;;;;;;29.90;86.50;;;;;;8263027;28;20037;-82
2023/05/07 13:35:44;;;;;;;;;;;29.50;83.30;;;;;;8270016;28;19913;-81
2023/05/07 13:39:45;;;;;;;;;;;28.40;87.70;;;;;;8271697;28;19967;-81
2023/05/07 13:43:46;;;;;;;;;;;27.00;90.00;;;;;;8266366;28;19922;-81
2023/05/07 13:47:46;;;;;;;;;;;26.30;92.40;;;;;;8268072;28;20421;-81
2023/05/07 13:51:47;;;;;;;;;;;26.20;92.70;;;;;;8262333;28;20369;-81
2023/05/07 13:55:47;;;;;;;;;;;26.00;93.30;;;;;;8261782;28;19922;-81
2023/05/07 13:59:47;;;;;;;;;;;25.20;94.20;;;;;;8255757;28;19929;-80
2023/05/07 14:03:48;;;;;;;;;;;24.80;94.50;;;;;;8263291;28;19925;-80
2023/05/07 14:07:51;;;;;;;;;;;24.60;97.00;;;;;;8261634;28;19925;-81
2023/05/07 14:11:52;;;;;;;;;;;24.00;94.80;;;;;;8262315;28;19960;-80
2023/05/07 14:15:52;;;;;;;;;;;24.30;98.00;;;;;;8246377;28;19917;-80
2023/05/07 14:19:54;;;;;;;;;;;24.60;96.50;;;;;;8251917;28;19918;-81
2023/05/07 14:23:56;;;;;;;;;;;25.30;95.10;;;;;;8251674;28;19917;-80
2023/05/07 14:28:02;;;;;;;;;;;25.40;94.80;;;;;;8255028;28;19920;-80
2023/05/07 14:32:03;;;;;;;;;;;24.50;95.80;;;;;;8259760;28;19928;-80
2023/05/07 14:36:06;;;;;;;;;;;23.80;96.20;;;;;;8256439;28;19918;-80
2023/05/07 14:40:13;;;;;;;;;;;24.00;96.90;;;;;;8254856;28;19914;-80
2023/05/07 14:44:13;;;;;;;;;;;24.10;97.60;;;;;;8244643;28;20044;-80
2023/05/07 14:48:17;;;;;;;;;;;23.40;98.10;;;;;;8246281;28;19932;-80
2023/05/07 14:52:17;;;;;;;;;;;22.60;99.20;;;;;;8264020;28;19961;-79
2023/05/07 14:56:18;;;;;;;;;;;21.50;99.90;;;;;;8249230;28;20325;-79
2023/05/07 15:00:18;;;;;;;;;;;20.60;99.90;;;;;;8253314;28;19936;-80
2023/05/07 15:04:19;;;;;;;;;;;20.00;99.90;;;;;;8247680;28;20926;-80
2023/05/07 15:08:19;;;;;;;;;;;19.90;99.90;;;;;;8251560;28;19918;-80
2023/05/07 15:12:20;;;;;;;;;;;19.70;99.90;;;;;;8246806;28;19917;-80
2023/05/07 15:16:21;;;;;;;;;;;19.60;99.90;;;;;;8255388;28;19977;-79
2023/05/07 15:20:21;;;;;;;;;;;19.50;99.90;;;;;;8272081;28;19920;-79
2023/05/07 15:24:22;;;;;;;;;;;19.40;99.90;;;;;;8282429;28;19914;-79
2023/05/07 15:28:24;;;;;;;;;;;19.30;99.90;;;;;;8266166;28;19971;-80
2023/05/07 15:32:25;;;;;;;;;;;19.00;99.90;;;;;;8250334;28;20329;-80
2023/05/07 15:36:25;;;;;;;;;;;18.70;99.90;;;;;;8249659;28;20012;-79
2023/05/07 15:40:26;;;;;;;;;;;17.60;99.90;;;;;;8249218;28;19977;-81
2023/05/07 15:44:28;;;;;;;;;;;17.10;99.90;;;;;;8255121;28;19926;-79
2023/05/07 15:48:28;;;;;;;;;;;17.00;99.90;;;;;;8270011;28;19917;-77
2023/05/07 15:52:30;;;;;;;;;;;16.10;99.90;;;;;;8264720;28;19971;-78
2023/05/07 15:56:33;;;;;;;;;;;15.00;99.90;;;;;;8255411;28;19941;-78
2023/05/07 16:00:35;;;;;;;;;;;14.10;99.90;;;;;;8252426;28;19917;-81
2023/05/07 16:04:35;;;;;;;;;;;13.70;99.90;;;;;;8263122;28;19918;-81
2023/05/07 16:08:36;;;;;;;;;;;13.60;99.90;;;;;;8261314;28;19924;-80
2023/05/07 16:12:36;;;;;;;;;;;13.50;99.90;;;;;;8252490;28;19920;-82
2023/05/07 16:16:39;;;;;;;;;;;13.50;99.90;;;;;;8263248;28;19928;-81
2023/05/07 16:20:40;;;;;;;;;;;13.60;99.90;;;;;;8271355;28;20001;-84
2023/05/07 16:24:41;;;;;;;;;;;13.60;99.90;;;;;;8260343;28;19918;-84
2023/05/07 16:28:41;;;;;;;;;;;13.60;99.90;;;;;;8274926;28;20441;-85
2023/05/07 16:32:42;;;;;;;;;;;13.60;99.90;;;;;;8280237;28;19929;-87
2023/05/07 16:36:42;;;;;;;;;;;13.50;99.90;;;;;;8265467;28;19992;-88
2023/05/07 16:40:43;;;;;;;;;;;13.80;99.90;;;;;;8256082;28;19914;-88
2023/05/07 16:44:46;;;;;;;;;;;14.00;99.90;;;;;;8265541;28;20048;-89
2023/05/07 16:48:56;;;;;;;;;;;14.00;99.90;;;;;;8252450;28;20553;-88
2023/05/07 16:52:57;;;;;;;;;;;14.10;99.90;;;;;;8264163;28;20403;-86
2023/05/07 16:56:58;;;;;;;;;;;14.10;99.90;;;;;;8261056;28;19921;-86
2023/05/07 17:00:59;;;;;;;;;;;14.00;99.90;;;;;;8273095;28;19918;-85
2023/05/07 17:05:00;;;;;;;;;;;14.20;99.90;;;;;;8278269;28;19968;-84
2023/05/07 17:09:00;;;;;;;;;;;14.30;99.90;;;;;;8285131;28;20628;-84
2023/05/07 17:13:01;;;;;;;;;;;14.20;99.90;;;;;;8276202;28;19917;-85
2023/05/07 17:17:01;;;;;;;;;;;14.40;99.90;;;;;;8264879;28;19913;-84
2023/05/07 17:21:01;;;;;;;;;;;14.70;99.90;;;;;;8279337;28;19918;-85
2023/05/07 17:25:03;;;;;;;;;;;14.80;99.90;;;;;;8284166;28;19914;-85
2023/05/07 17:29:03;;;;;;;;;;;14.60;99.90;;;;;;8284467;28;19916;-84
2023/05/07 17:33:04;;;;;;;;;;;14.20;99.90;;;;;;8269083;28;20575;-85
2023/05/07 17:37:05;;;;;;;;;;;14.10;99.90;;;;;;8274697;28;19916;-86
2023/05/07 17:41:05;;;;;;;;;;;14.10;99.90;;;;;;8271372;28;19910;-85
2023/05/07 17:45:06;;;;;;;;;;;14.20;99.90;;;;;;8276167;28;19922;-85
2023/05/07 17:49:07;;;;;;;;;;;14.10;99.90;;;;;;8284630;28;20048;-86
2023/05/07 17:53:08;;;;;;;;;;;14.10;99.90;;;;;;8272502;28;19978;-85
2023/05/07 17:57:09;;;;;;;;;;;14.20;99.90;;;;;;8286968;28;19914;-85
2023/05/07 18:01:09;;;;;;;;;;;14.20;99.90;;;;;;8283136;28;19918;-85
2023/05/07 18:05:10;;;;;;;;;;;14.20;99.90;;;;;;8279910;28;20283;-85
2023/05/07 18:09:10;;;;;;;;;;;14.00;99.90;;;;;;8281841;28;19920;-84
2023/05/07 18:13:11;;;;;;;;;;;13.90;99.90;;;;;;8270077;28;20374;-85
2023/05/07 18:17:11;;;;;;;;;;;13.90;99.90;;;;;;8278221;28;19914;-85
2023/05/07 18:21:17;;;;;;;;;;;13.70;99.90;;;;;;8269787;28;19909;-85
2023/05/07 18:25:18;;;;;;;;;;;13.70;99.90;;;;;;8276720;28;20291;-84
2023/05/07 18:29:18;;;;;;;;;;;14.00;99.90;;;;;;8284959;28;19910;-84
2023/05/07 18:33:18;;;;;;;;;;;14.20;99.90;;;;;;8280440;28;20023;-83
2023/05/07 18:37:19;;;;;;;;;;;14.00;99.90;;;;;;8276631;28;20566;-84
2023/05/07 18:41:20;;;;;;;;;;;13.90;99.90;;;;;;8268483;28;19913;-84
2023/05/07 18:45:20;;;;;;;;;;;13.80;99.90;;;;;;8287808;28;19996;-83
2023/05/07 18:49:23;;;;;;;;;;;13.80;99.90;;;;;;8280855;28;21547;-84
2023/05/07 18:53:23;;;;;;;;;;;13.90;99.90;;;;;;8278725;28;19967;-83
2023/05/07 18:57:24;;;;;;;;;;;13.80;99.90;;;;;;8282787;28;19909;-84
2023/05/07 19:01:24;;;;;;;;;;;13.90;99.90;;;;;;8287278;28;19918;-83
2023/05/07 19:05:25;;;;;;;;;;;14.10;99.90;;;;;;8275105;28;19909;-83
2023/05/07 19:09:25;;;;;;;;;;;14.20;99.90;;;;;;8282454;28;20374;-83
2023/05/07 19:13:27;;;;;;;;;;;14.20;99.90;;;;;;8270650;28;19914;-84
2023/05/07 19:17:27;;;;;;;;;;;14.10;99.90;;;;;;8263892;28;19925;-84
2023/05/07 19:21:28;;;;;;;;;;;14.00;99.90;;;;;;8266016;28;20705;-83
2023/05/07 19:25:28;;;;;;;;;;;14.40;99.90;;;;;;8293162;28;19913;-84
2023/05/07 19:29:29;;;;;;;;;;;14.40;99.90;;;;;;8269368;28;19914;-83
2023/05/07 19:33:29;;;;;;;;;;;14.20;99.90;;;;;;8273068;28;19972;-84
2023/05/07 19:37:30;;;;;;;;;;;13.90;99.90;;;;;;8272181;28;19936;-83
2023/05/07 19:41:30;;;;;;;;;;;13.90;99.90;;;;;;8273471;28;19914;-83
2023/05/07 19:45:31;;;;;;;;;;;13.90;99.90;;;;;;8270046;28;19918;-83
2023/05/07 19:49:31;;;;;;;;;;;13.80;99.90;;;;;;8275552;28;19953;-83
2023/05/07 19:53:32;;;;;;;;;;;13.70;99.90;;;;;;8255126;28;19921;-83
2023/05/07 19:57:32;;;;;;;;;;;13.70;99.90;;;;;;8278059;28;19917;-83
2023/05/07 20:01:33;;;;;;;;;;;13.80;99.90;;;;;;8267872;28;19918;-82
2023/05/07 20:05:33;;;;;;;;;;;13.70;99.90;;;;;;8271420;28;19964;-82
2023/05/07 20:09:34;;;;;;;;;;;13.80;99.90;;;;;;8281423;28;19917;-82
2023/05/07 20:13:34;;;;;;;;;;;13.80;99.90;;;;;;8247608;23;19937;-81
2023/05/07 20:17:35;;;;;;;;;;;13.70;99.90;;;;;;8230501;28;19924;-80
2023/05/07 20:21:35;;;;;;;;;;;13.80;99.90;;;;;;8221516;28;19918;-80
2023/05/07 20:25:36;;;;;;;;;;;13.80;99.90;;;;;;8222078;28;19921;-79
2023/05/07 20:29:36;;;;;;;;;;;13.60;99.90;;;;;;8227168;28;19921;-80
2023/05/07 20:33:39;;;;;;;;;;;13.60;99.90;;;;;;8234891;28;20385;-80
2023/05/07 20:37:42;;;;;;;;;;;13.50;99.90;;;;;;8238032;28;19914;-80
2023/05/07 20:41:43;;;;;;;;;;;13.50;99.90;;;;;;8226738;28;19914;-79
2023/05/07 20:45:43;;;;;;;;;;;13.50;99.90;;;;;;8228788;28;19914;-80
2023/05/07 20:49:50;;;;;;;;;;;13.50;99.90;;;;;;8228119;28;20446;-80
2023/05/07 20:53:50;;;;;;;;;;;13.60;99.90;;;;;;8255665;28;19918;-80
2023/05/07 20:57:51;;;;;;;;;;;13.60;99.90;;;;;;8225902;28;19957;-79
2023/05/07 21:01:51;;;;;;;;;;;13.50;99.90;;;;;;8237028;28;20383;-80
2023/05/07 21:05:56;;;;;;;;;;;13.50;99.90;;;;;;8241946;28;19914;-81
2023/05/07 21:09:56;;;;;;;;;;;13.50;99.90;;;;;;8240280;28;19952;-80
2023/05/07 21:13:57;;;;;;;;;;;13.50;99.90;;;;;;8245673;28;19922;-81
2023/05/07 21:17:57;;;;;;;;;;;13.50;99.90;;;;;;8247275;28;20000;-81
2023/05/07 21:21:58;;;;;;;;;;;13.50;99.90;;;;;;8244689;28;19914;-80
2023/05/07 21:25:58;;;;;;;;;;;13.50;99.90;;;;;;8271181;28;20323;-81
2023/05/07 21:30:03;;;;;;;;;;;13.50;99.90;;;;;;8246508;28;19997;-81
2023/05/07 21:34:06;;;;;;;;;;;13.40;99.90;;;;;;8239891;28;20029;-81
2023/05/07 21:38:11;;;;;;;;;;;13.30;99.90;;;;;;8232965;28;19922;-81
2023/05/07 21:42:11;;;;;;;;;;;13.30;99.90;;;;;;8228101;28;19949;-80
2023/05/07 21:46:12;;;;;;;;;;;13.30;99.90;;;;;;8224781;28;20379;-80
2023/05/07 21:50:12;;;;;;;;;;;13.30;99.90;;;;;;8226558;28;19918;-80
2023/05/07 21:54:13;;;;;;;;;;;13.20;99.90;;;;;;8230082;28;19929;-80
2023/05/07 21:58:13;;;;;;;;;;;13.20;99.90;;;;;;8233513;28;19918;-80
2023/05/07 22:02:14;;;;;;;;;;;13.20;99.90;;;;;;8222099;28;19960;-80
2023/05/07 22:06:20;;;;;;;;;;;13.20;99.90;;;;;;8258067;28;20001;-80
2023/05/07 22:10:21;;;;;;;;;;;13.10;99.90;;;;;;8226061;28;19914;-82
2023/05/07 22:14:21;;;;;;;;;;;13.20;99.90;;;;;;8225585;28;19922;-80
2023/05/07 22:18:22;;;;;;;;;;;13.10;99.90;;;;;;8226155;28;19972;-80
2023/05/07 22:22:22;;;;;;;;;;;13.10;99.90;;;;;;8226373;28;20326;-80
2023/05/07 22:26:23;;;;;;;;;;;13.10;99.90;;;;;;8228240;28;19937;-78
2023/05/07 22:30:23;;;;;;;;;;;13.40;99.90;;;;;;8226786;28;20390;-79
2023/05/07 22:34:24;;;;;;;;;;;13.70;99.90;;;;;;8224879;28;19946;-79
2023/05/07 22:38:24;;;;;;;;;;;13.80;99.90;;;;;;8226667;28;19914;-79
2023/05/07 22:42:25;;;;;;;;;;;13.70;99.90;;;;;;8227259;28;19950;-79
2023/05/07 22:46:25;;;;;;;;;;;13.90;99.90;;;;;;8224513;28;20417;-82
2023/05/07 22:50:26;;;;;;;;;;;14.00;99.90;;;;;;8225154;28;20394;-80
2023/05/07 22:54:26;;;;;;;;;;;14.20;99.90;;;;;;8228010;28;19922;-79
2023/05/07 22:58:27;;;;;;;;;;;14.10;99.90;;;;;;8225966;28;19941;-80
2023/05/07 23:02:27;;;;;;;;;;;13.90;99.90;;;;;;8230250;28;19910;-79
2023/05/07 23:06:28;;;;;;;;;;;13.70;99.90;;;;;;8231587;28;19981;-79
2023/05/07 23:10:28;;;;;;;;;;;13.90;99.90;;;;;;8231897;28;19914;-80
2023/05/07 23:14:29;;;;;;;;;;;14.00;99.90;;;;;;8230588;28;19921;-79
2023/05/07 23:18:31;;;;;;;;;;;14.10;99.90;;;;;;8232800;28;19910;-78
2023/05/07 23:22:31;;;;;;;;;;;14.20;99.90;;;;;;8229861;28;20033;-79
2023/05/07 23:26:32;;;;;;;;;;;14.20;99.90;;;;;;8232611;28;19914;-84